sensor_id;sensor_type;location;lat;lon;timestamp;P1;durP1;ratioP1;P2;durP2;ratioP2
13263;SDS011;6700;51.988;7.646;2024-03-23T00:53:28;8.73;;;3.53;;
13263;SDS011;6700;51.988;7.646;2024-03-23T00:55:54;9.13;;;3.90;;
13263;SDS011;6700;51.988;7.646;2024-03-23T00:58:20;9.43;;;3.20;;
13263;SDS011;6700;51.988;7.646;2024-03-23T01:00:46;9.07;;;4.07;;
13263;SDS011;6700;51.988;7.646;2024-03-23T01:03:13;7.07;;;3.10;;
13263;SDS011;6700;51.988;7.646;2024-03-23T01:05:39;10.40;;;2.70;;
13263;SDS011;6700;51.988;7.646;2024-03-23T01:08:05;6.00;;;2.93;;
13263;SDS011;6700;51.988;7.646;2024-03-23T01:10:31;5.77;;;3.33;;
13263;SDS011;6700;51.988;7.646;2024-03-23T01:12:58;6.43;;;2.70;;
13263;SDS011;6700;51.988;7.646;2024-03-23T01:15:24;6.60;;;3.20;;
13263;SDS011;6700;51.988;7.646;2024-03-23T01:17:50;9.20;;;3.63;;
13263;SDS011;6700;51.988;7.646;2024-03-23T01:20:16;6.30;;;2.67;;
13263;SDS011;6700;51.988;7.646;2024-03-23T01:22:43;11.07;;;3.10;;
13263;SDS011;6700;51.988;7.646;2024-03-23T01:25:09;10.73;;;2.70;;
13263;SDS011;6700;51.988;7.646;2024-03-23T01:27:35;7.43;;;2.87;;
13263;SDS011;6700;51.988;7.646;2024-03-23T01:30:01;9.10;;;2.90;;
13263;SDS011;6700;51.988;7.646;2024-03-23T01:32:28;5.80;;;2.30;;
13263;SDS011;6700;51.988;7.646;2024-03-23T01:34:54;5.30;;;2.37;;
13263;SDS011;6700;51.988;7.646;2024-03-23T01:37:20;7.03;;;2.43;;
13263;SDS011;6700;51.988;7.646;2024-03-23T01:39:46;3.87;;;2.43;;
13263;SDS011;6700;51.988;7.646;2024-03-23T01:42:12;7.57;;;2.50;;
13263;SDS011;6700;51.988;7.646;2024-03-23T01:44:39;5.07;;;2.63;;
13263;SDS011;6700;51.988;7.646;2024-03-23T01:47:06;5.03;;;2.47;;
13263;SDS011;6700;51.988;7.646;2024-03-23T01:49:32;7.73;;;2.97;;
13263;SDS011;6700;51.988;7.646;2024-03-23T01:51:59;8.43;;;2.57;;
13263;SDS011;6700;51.988;7.646;2024-03-23T01:54:25;5.20;;;2.70;;
13263;SDS011;6700;51.988;7.646;2024-03-23T01:56:52;8.03;;;2.67;;
13263;SDS011;6700;51.988;7.646;2024-03-23T01:59:18;8.73;;;3.20;;
13263;SDS011;6700;51.988;7.646;2024-03-23T02:01:45;7.57;;;2.80;;
13263;SDS011;6700;51.988;7.646;2024-03-23T02:04:11;8.37;;;3.07;;
13263;SDS011;6700;51.988;7.646;2024-03-23T02:06:37;5.43;;;2.63;;
13263;SDS011;6700;51.988;7.646;2024-03-23T02:09:03;7.57;;;3.13;;
13263;SDS011;6700;51.988;7.646;2024-03-23T02:11:30;8.93;;;3.13;;
13263;SDS011;6700;51.988;7.646;2024-03-23T02:13:57;8.93;;;2.60;;
13263;SDS011;6700;51.988;7.646;2024-03-23T02:16:23;9.53;;;3.23;;
13263;SDS011;6700;51.988;7.646;2024-03-23T02:18:49;8.87;;;4.07;;
13263;SDS011;6700;51.988;7.646;2024-03-23T02:21:15;8.87;;;3.77;;
13263;SDS011;6700;51.988;7.646;2024-03-23T02:23:42;8.60;;;3.07;;
13263;SDS011;6700;51.988;7.646;2024-03-23T02:26:08;7.53;;;4.17;;
13263;SDS011;6700;51.988;7.646;2024-03-23T02:28:34;10.37;;;3.70;;
13263;SDS011;6700;51.988;7.646;2024-03-23T02:31:00;9.07;;;3.77;;
13263;SDS011;6700;51.988;7.646;2024-03-23T02:33:27;10.67;;;3.73;;
13263;SDS011;6700;51.988;7.646;2024-03-23T02:35:55;8.93;;;3.70;;
13263;SDS011;6700;51.988;7.646;2024-03-23T02:38:22;7.57;;;3.43;;
13263;SDS011;6700;51.988;7.646;2024-03-23T02:40:49;7.20;;;3.40;;
13263;SDS011;6700;51.988;7.646;2024-03-23T02:43:15;10.40;;;3.80;;
13263;SDS011;6700;51.988;7.646;2024-03-23T02:45:41;10.33;;;4.20;;
13263;SDS011;6700;51.988;7.646;2024-03-23T02:48:07;11.33;;;4.10;;
13263;SDS011;6700;51.988;7.646;2024-03-23T02:50:34;14.77;;;4.93;;
13263;SDS011;6700;51.988;7.646;2024-03-23T02:53:00;8.53;;;3.33;;
13263;SDS011;6700;51.988;7.646;2024-03-23T02:55:26;6.03;;;3.80;;
13263;SDS011;6700;51.988;7.646;2024-03-23T02:57:53;7.33;;;4.07;;
13263;SDS011;6700;51.988;7.646;2024-03-23T03:00:19;9.93;;;3.43;;
13263;SDS011;6700;51.988;7.646;2024-03-23T03:02:45;6.37;;;3.57;;
13263;SDS011;6700;51.988;7.646;2024-03-23T03:05:11;11.20;;;4.83;;
13263;SDS011;6700;51.988;7.646;2024-03-23T03:07:39;11.03;;;3.87;;
13263;SDS011;6700;51.988;7.646;2024-03-23T03:10:06;11.73;;;4.03;;
13263;SDS011;6700;51.988;7.646;2024-03-23T03:12:35;11.53;;;4.03;;
13263;SDS011;6700;51.988;7.646;2024-03-23T03:15:01;10.43;;;4.57;;
13263;SDS011;6700;51.988;7.646;2024-03-23T03:17:28;9.13;;;5.17;;
13263;SDS011;6700;51.988;7.646;2024-03-23T03:19:54;12.70;;;5.00;;
13263;SDS011;6700;51.988;7.646;2024-03-23T03:22:21;12.37;;;4.50;;
13263;SDS011;6700;51.988;7.646;2024-03-23T03:24:48;13.77;;;5.10;;
13263;SDS011;6700;51.988;7.646;2024-03-23T03:27:14;9.93;;;4.00;;
13263;SDS011;6700;51.988;7.646;2024-03-23T03:29:40;12.07;;;4.20;;
13263;SDS011;6700;51.988;7.646;2024-03-23T03:32:06;9.83;;;4.50;;
13263;SDS011;6700;51.988;7.646;2024-03-23T03:34:32;13.50;;;5.60;;
13263;SDS011;6700;51.988;7.646;2024-03-23T03:36:59;10.37;;;4.90;;
13263;SDS011;6700;51.988;7.646;2024-03-23T03:39:25;14.23;;;5.30;;
13263;SDS011;6700;51.988;7.646;2024-03-23T03:41:51;15.63;;;6.00;;
13263;SDS011;6700;51.988;7.646;2024-03-23T03:44:18;13.50;;;5.47;;
13263;SDS011;6700;51.988;7.646;2024-03-23T03:46:44;12.70;;;5.20;;
13263;SDS011;6700;51.988;7.646;2024-03-23T03:49:10;16.50;;;7.50;;
13263;SDS011;6700;51.988;7.646;2024-03-23T03:51:36;15.57;;;5.63;;
13263;SDS011;6700;51.988;7.646;2024-03-23T03:54:03;15.27;;;5.87;;
13263;SDS011;6700;51.988;7.646;2024-03-23T03:56:29;11.37;;;5.00;;
13263;SDS011;6700;51.988;7.646;2024-03-23T03:58:55;12.17;;;5.60;;
13263;SDS011;6700;51.988;7.646;2024-03-23T04:01:21;15.73;;;6.33;;
13263;SDS011;6700;51.988;7.646;2024-03-23T04:03:47;10.37;;;5.87;;
13263;SDS011;6700;51.988;7.646;2024-03-23T04:06:20;14.40;;;5.93;;
13263;SDS011;6700;51.988;7.646;2024-03-23T04:08:46;15.57;;;6.87;;
13263;SDS011;6700;51.988;7.646;2024-03-23T04:11:12;13.40;;;5.40;;
13263;SDS011;6700;51.988;7.646;2024-03-23T04:13:38;16.33;;;6.40;;
13263;SDS011;6700;51.988;7.646;2024-03-23T04:16:06;12.93;;;7.03;;
13263;SDS011;6700;51.988;7.646;2024-03-23T04:18:34;16.53;;;6.40;;
13263;SDS011;6700;51.988;7.646;2024-03-23T04:21:00;17.93;;;6.63;;
13263;SDS011;6700;51.988;7.646;2024-03-23T04:23:27;16.17;;;6.60;;
13263;SDS011;6700;51.988;7.646;2024-03-23T04:25:53;13.27;;;5.90;;
13263;SDS011;6700;51.988;7.646;2024-03-23T04:28:19;18.67;;;6.60;;
13263;SDS011;6700;51.988;7.646;2024-03-23T04:30:46;17.33;;;6.97;;
13263;SDS011;6700;51.988;7.646;2024-03-23T04:33:12;14.73;;;7.40;;
13263;SDS011;6700;51.988;7.646;2024-03-23T04:35:38;17.13;;;8.03;;
13263;SDS011;6700;51.988;7.646;2024-03-23T04:38:05;21.13;;;7.43;;
13263;SDS011;6700;51.988;7.646;2024-03-23T04:40:31;13.40;;;7.50;;
13263;SDS011;6700;51.988;7.646;2024-03-23T04:42:57;19.43;;;7.23;;
13263;SDS011;6700;51.988;7.646;2024-03-23T04:45:23;14.17;;;7.43;;
13263;SDS011;6700;51.988;7.646;2024-03-23T04:47:50;21.40;;;6.77;;
13263;SDS011;6700;51.988;7.646;2024-03-23T04:50:16;13.93;;;8.00;;
13263;SDS011;6700;51.988;7.646;2024-03-23T04:52:43;18.03;;;7.13;;
13263;SDS011;6700;51.988;7.646;2024-03-23T04:55:09;16.50;;;7.57;;
13263;SDS011;6700;51.988;7.646;2024-03-23T04:57:37;17.23;;;7.60;;
13263;SDS011;6700;51.988;7.646;2024-03-23T05:00:03;13.67;;;7.37;;
13263;SDS011;6700;51.988;7.646;2024-03-23T05:02:38;21.67;;;8.80;;
13263;SDS011;6700;51.988;7.646;2024-03-23T05:05:04;15.40;;;7.90;;
13263;SDS011;6700;51.988;7.646;2024-03-23T05:07:32;16.30;;;8.27;;
13263;SDS011;6700;51.988;7.646;2024-03-23T05:09:58;18.53;;;7.97;;
13263;SDS011;6700;51.988;7.646;2024-03-23T05:12:24;18.97;;;9.07;;
13263;SDS011;6700;51.988;7.646;2024-03-23T05:14:51;22.00;;;9.83;;
13263;SDS011;6700;51.988;7.646;2024-03-23T05:17:18;25.60;;;9.47;;
13263;SDS011;6700;51.988;7.646;2024-03-23T05:19:44;14.13;;;8.67;;
13263;SDS011;6700;51.988;7.646;2024-03-23T05:22:10;21.87;;;10.40;;
13263;SDS011;6700;51.988;7.646;2024-03-23T05:24:36;23.93;;;10.40;;
13263;SDS011;6700;51.988;7.646;2024-03-23T05:27:02;21.30;;;10.70;;
13263;SDS011;6700;51.988;7.646;2024-03-23T05:29:29;29.50;;;11.83;;
13263;SDS011;6700;51.988;7.646;2024-03-23T05:31:55;24.20;;;10.20;;
13263;SDS011;6700;51.988;7.646;2024-03-23T05:34:22;29.00;;;11.80;;
13263;SDS011;6700;51.988;7.646;2024-03-23T05:36:48;29.33;;;11.10;;
13263;SDS011;6700;51.988;7.646;2024-03-23T05:39:14;24.07;;;11.53;;
13263;SDS011;6700;51.988;7.646;2024-03-23T05:41:42;19.70;;;10.60;;
13263;SDS011;6700;51.988;7.646;2024-03-23T05:44:08;21.27;;;10.70;;
13263;SDS011;6700;51.988;7.646;2024-03-23T05:46:36;21.63;;;11.50;;
13263;SDS011;6700;51.988;7.646;2024-03-23T05:49:02;23.17;;;11.13;;
13263;SDS011;6700;51.988;7.646;2024-03-23T05:51:28;30.47;;;13.23;;
13263;SDS011;6700;51.988;7.646;2024-03-23T05:53:55;20.47;;;11.07;;
13263;SDS011;6700;51.988;7.646;2024-03-23T05:56:21;19.10;;;12.17;;
13263;SDS011;6700;51.988;7.646;2024-03-23T05:58:47;27.57;;;11.70;;
13263;SDS011;6700;51.988;7.646;2024-03-23T06:01:13;27.90;;;13.87;;
13263;SDS011;6700;51.988;7.646;2024-03-23T06:03:40;27.70;;;11.37;;
13263;SDS011;6700;51.988;7.646;2024-03-23T06:06:06;25.33;;;11.30;;
13263;SDS011;6700;51.988;7.646;2024-03-23T06:08:37;29.00;;;12.80;;
13263;SDS011;6700;51.988;7.646;2024-03-23T06:11:03;27.27;;;12.60;;
13263;SDS011;6700;51.988;7.646;2024-03-23T06:13:33;21.83;;;11.47;;
13263;SDS011;6700;51.988;7.646;2024-03-23T06:16:00;24.97;;;12.00;;
13263;SDS011;6700;51.988;7.646;2024-03-23T06:18:27;27.10;;;12.80;;
13263;SDS011;6700;51.988;7.646;2024-03-23T06:20:53;25.63;;;12.80;;
13263;SDS011;6700;51.988;7.646;2024-03-23T06:23:20;21.97;;;13.30;;
13263;SDS011;6700;51.988;7.646;2024-03-23T06:25:46;26.03;;;13.77;;
13263;SDS011;6700;51.988;7.646;2024-03-23T06:28:13;25.23;;;14.13;;
13263;SDS011;6700;51.988;7.646;2024-03-23T06:30:39;25.87;;;14.20;;
13263;SDS011;6700;51.988;7.646;2024-03-23T06:33:05;23.87;;;13.87;;
13263;SDS011;6700;51.988;7.646;2024-03-23T06:35:32;23.40;;;13.27;;
13263;SDS011;6700;51.988;7.646;2024-03-23T06:37:58;32.43;;;14.37;;
13263;SDS011;6700;51.988;7.646;2024-03-23T06:40:24;23.97;;;14.37;;
13263;SDS011;6700;51.988;7.646;2024-03-23T06:42:50;32.60;;;15.10;;
13263;SDS011;6700;51.988;7.646;2024-03-23T06:45:16;24.70;;;13.83;;
13263;SDS011;6700;51.988;7.646;2024-03-23T06:47:48;29.07;;;14.27;;
13263;SDS011;6700;51.988;7.646;2024-03-23T06:50:15;21.00;;;12.43;;
13263;SDS011;6700;51.988;7.646;2024-03-23T06:52:41;24.67;;;12.50;;
13263;SDS011;6700;51.988;7.646;2024-03-23T06:55:07;22.93;;;12.97;;
13263;SDS011;6700;51.988;7.646;2024-03-23T06:57:33;19.20;;;12.10;;
13263;SDS011;6700;51.988;7.646;2024-03-23T07:00:00;23.67;;;12.10;;
13263;SDS011;6700;51.988;7.646;2024-03-23T07:02:26;19.90;;;11.30;;
13263;SDS011;6700;51.988;7.646;2024-03-23T07:04:53;20.40;;;10.80;;
13263;SDS011;6700;51.988;7.646;2024-03-23T07:07:19;16.97;;;10.33;;
13263;SDS011;6700;51.988;7.646;2024-03-23T07:09:45;20.63;;;10.10;;
13263;SDS011;6700;51.988;7.646;2024-03-23T07:12:11;19.73;;;10.00;;
13263;SDS011;6700;51.988;7.646;2024-03-23T07:14:38;20.03;;;8.80;;
13263;SDS011;6700;51.988;7.646;2024-03-23T07:17:04;17.20;;;9.37;;
13263;SDS011;6700;51.988;7.646;2024-03-23T07:19:30;19.90;;;9.30;;
13263;SDS011;6700;51.988;7.646;2024-03-23T07:21:56;16.43;;;8.47;;
13263;SDS011;6700;51.988;7.646;2024-03-23T07:24:22;18.77;;;8.50;;
13263;SDS011;6700;51.988;7.646;2024-03-23T07:26:49;18.93;;;9.17;;
13263;SDS011;6700;51.988;7.646;2024-03-23T07:29:16;15.83;;;8.10;;
13263;SDS011;6700;51.988;7.646;2024-03-23T07:31:42;17.80;;;7.90;;
13263;SDS011;6700;51.988;7.646;2024-03-23T07:34:09;13.63;;;7.20;;
13263;SDS011;6700;51.988;7.646;2024-03-23T07:36:35;15.87;;;7.50;;
13263;SDS011;6700;51.988;7.646;2024-03-23T07:39:01;18.50;;;8.20;;
13263;SDS011;6700;51.988;7.646;2024-03-23T07:41:29;18.70;;;6.83;;
13263;SDS011;6700;51.988;7.646;2024-03-23T07:43:56;15.13;;;6.73;;
13263;SDS011;6700;51.988;7.646;2024-03-23T07:46:22;11.33;;;6.40;;
13263;SDS011;6700;51.988;7.646;2024-03-23T07:48:50;16.07;;;6.17;;
13263;SDS011;6700;51.988;7.646;2024-03-23T07:51:17;15.40;;;5.90;;
13263;SDS011;6700;51.988;7.646;2024-03-23T07:53:44;9.80;;;6.07;;
13263;SDS011;6700;51.988;7.646;2024-03-23T07:56:17;11.17;;;5.93;;
13263;SDS011;6700;51.988;7.646;2024-03-23T07:58:45;11.77;;;5.70;;
13263;SDS011;6700;51.988;7.646;2024-03-23T08:01:12;10.57;;;5.07;;
13263;SDS011;6700;51.988;7.646;2024-03-23T08:03:40;12.43;;;5.07;;
13263;SDS011;6700;51.988;7.646;2024-03-23T08:06:13;13.27;;;5.47;;
13263;SDS011;6700;51.988;7.646;2024-03-23T08:08:40;10.20;;;5.17;;
13263;SDS011;6700;51.988;7.646;2024-03-23T08:11:06;11.87;;;5.20;;
13263;SDS011;6700;51.988;7.646;2024-03-23T08:13:33;11.13;;;4.50;;
13263;SDS011;6700;51.988;7.646;2024-03-23T08:16:00;10.37;;;4.30;;
13263;SDS011;6700;51.988;7.646;2024-03-23T08:18:27;9.97;;;4.60;;
13263;SDS011;6700;51.988;7.646;2024-03-23T08:21:00;12.40;;;4.73;;
13263;SDS011;6700;51.988;7.646;2024-03-23T08:23:30;15.10;;;5.50;;
13263;SDS011;6700;51.988;7.646;2024-03-23T08:25:57;9.40;;;3.80;;
13263;SDS011;6700;51.988;7.646;2024-03-23T08:28:24;9.23;;;4.17;;
13263;SDS011;6700;51.988;7.646;2024-03-23T08:30:50;12.40;;;4.80;;
13263;SDS011;6700;51.988;7.646;2024-03-23T08:33:17;11.23;;;4.30;;
13263;SDS011;6700;51.988;7.646;2024-03-23T08:35:43;14.77;;;3.60;;
13263;SDS011;6700;51.988;7.646;2024-03-23T08:38:18;11.00;;;3.93;;
13263;SDS011;6700;51.988;7.646;2024-03-23T08:40:44;8.83;;;4.33;;
13263;SDS011;6700;51.988;7.646;2024-03-23T08:43:10;14.40;;;4.20;;
13263;SDS011;6700;51.988;7.646;2024-03-23T08:45:36;5.93;;;3.50;;
13263;SDS011;6700;51.988;7.646;2024-03-23T08:48:03;6.43;;;3.10;;
13263;SDS011;6700;51.988;7.646;2024-03-23T08:50:29;11.27;;;4.10;;
13263;SDS011;6700;51.988;7.646;2024-03-23T08:52:55;9.00;;;3.30;;
13263;SDS011;6700;51.988;7.646;2024-03-23T08:55:21;7.50;;;3.43;;
13263;SDS011;6700;51.988;7.646;2024-03-23T08:57:47;11.13;;;3.40;;
13263;SDS011;6700;51.988;7.646;2024-03-23T09:00:14;8.40;;;3.30;;
13263;SDS011;6700;51.988;7.646;2024-03-23T09:02:40;8.13;;;3.17;;
13263;SDS011;6700;51.988;7.646;2024-03-23T09:05:06;9.40;;;3.73;;
13263;SDS011;6700;51.988;7.646;2024-03-23T09:07:33;8.03;;;3.40;;
13263;SDS011;6700;51.988;7.646;2024-03-23T09:09:59;12.27;;;3.57;;
13263;SDS011;6700;51.988;7.646;2024-03-23T09:12:25;8.33;;;3.20;;
13263;SDS011;6700;51.988;7.646;2024-03-23T09:14:51;8.63;;;3.60;;
13263;SDS011;6700;51.988;7.646;2024-03-23T09:17:18;6.93;;;4.07;;
13263;SDS011;6700;51.988;7.646;2024-03-23T09:19:44;11.63;;;3.37;;
13263;SDS011;6700;51.988;7.646;2024-03-23T09:22:11;10.47;;;4.23;;
13263;SDS011;6700;51.988;7.646;2024-03-23T09:24:38;8.50;;;3.60;;
13263;SDS011;6700;51.988;7.646;2024-03-23T09:27:04;9.20;;;3.70;;
13263;SDS011;6700;51.988;7.646;2024-03-23T09:29:30;8.90;;;3.47;;
13263;SDS011;6700;51.988;7.646;2024-03-23T09:31:57;7.07;;;3.43;;
13263;SDS011;6700;51.988;7.646;2024-03-23T09:34:23;8.50;;;3.53;;
13263;SDS011;6700;51.988;7.646;2024-03-23T09:36:52;6.67;;;3.57;;
13263;SDS011;6700;51.988;7.646;2024-03-23T09:39:18;9.37;;;3.80;;
13263;SDS011;6700;51.988;7.646;2024-03-23T09:41:45;7.23;;;3.00;;
13263;SDS011;6700;51.988;7.646;2024-03-23T09:44:11;6.83;;;3.73;;
13263;SDS011;6700;51.988;7.646;2024-03-23T09:46:38;7.00;;;3.97;;
13263;SDS011;6700;51.988;7.646;2024-03-23T09:49:05;7.73;;;3.37;;
13263;SDS011;6700;51.988;7.646;2024-03-23T09:51:35;6.53;;;3.60;;
13263;SDS011;6700;51.988;7.646;2024-03-23T09:54:02;8.53;;;3.70;;
13263;SDS011;6700;51.988;7.646;2024-03-23T09:56:28;7.13;;;3.20;;
13263;SDS011;6700;51.988;7.646;2024-03-23T09:59:01;8.97;;;3.03;;
13263;SDS011;6700;51.988;7.646;2024-03-23T10:01:29;9.53;;;3.10;;
13263;SDS011;6700;51.988;7.646;2024-03-23T10:03:55;6.00;;;3.30;;
13263;SDS011;6700;51.988;7.646;2024-03-23T10:06:22;6.57;;;3.47;;
13263;SDS011;6700;51.988;7.646;2024-03-23T10:08:51;5.53;;;3.13;;
13263;SDS011;6700;51.988;7.646;2024-03-23T10:11:19;9.43;;;3.20;;
13263;SDS011;6700;51.988;7.646;2024-03-23T10:13:46;7.10;;;2.87;;
13263;SDS011;6700;51.988;7.646;2024-03-23T10:16:20;9.00;;;2.97;;
13263;SDS011;6700;51.988;7.646;2024-03-23T10:18:47;9.47;;;3.20;;
13263;SDS011;6700;51.988;7.646;2024-03-23T10:21:13;9.63;;;2.90;;
13263;SDS011;6700;51.988;7.646;2024-03-23T10:23:43;6.20;;;2.70;;
13263;SDS011;6700;51.988;7.646;2024-03-23T10:26:21;7.90;;;2.53;;
13263;SDS011;6700;51.988;7.646;2024-03-23T10:31:23;5.10;;;3.03;;
13263;SDS011;6700;51.988;7.646;2024-03-23T10:33:50;4.43;;;2.43;;
13263;SDS011;6700;51.988;7.646;2024-03-23T10:36:19;6.50;;;2.67;;
13263;SDS011;6700;51.988;7.646;2024-03-23T10:38:46;7.60;;;2.50;;
13263;SDS011;6700;51.988;7.646;2024-03-23T10:41:12;5.77;;;2.37;;
13263;SDS011;6700;51.988;7.646;2024-03-23T10:43:38;4.50;;;2.60;;
13263;SDS011;6700;51.988;7.646;2024-03-23T10:46:05;7.80;;;2.53;;
13263;SDS011;6700;51.988;7.646;2024-03-23T10:48:34;6.70;;;2.50;;
13263;SDS011;6700;51.988;7.646;2024-03-23T10:51:01;4.17;;;2.30;;
13263;SDS011;6700;51.988;7.646;2024-03-23T10:53:27;4.20;;;2.17;;
13263;SDS011;6700;51.988;7.646;2024-03-23T10:55:54;5.57;;;2.13;;
13263;SDS011;6700;51.988;7.646;2024-03-23T10:58:40;8.37;;;2.73;;
13263;SDS011;6700;51.988;7.646;2024-03-23T11:01:10;2.83;;;1.83;;
13263;SDS011;6700;51.988;7.646;2024-03-23T11:03:37;4.13;;;2.03;;
13263;SDS011;6700;51.988;7.646;2024-03-23T11:06:04;5.47;;;2.00;;
13263;SDS011;6700;51.988;7.646;2024-03-23T11:08:35;6.20;;;2.57;;
13263;SDS011;6700;51.988;7.646;2024-03-23T11:13:40;7.60;;;2.37;;
13263;SDS011;6700;51.988;7.646;2024-03-23T11:16:12;7.23;;;2.87;;
13263;SDS011;6700;51.988;7.646;2024-03-23T11:18:39;4.73;;;1.80;;
13263;SDS011;6700;51.988;7.646;2024-03-23T11:21:09;7.43;;;1.73;;
13263;SDS011;6700;51.988;7.646;2024-03-23T11:23:35;3.37;;;1.57;;
13263;SDS011;6700;51.988;7.646;2024-03-23T11:26:01;8.17;;;2.40;;
13263;SDS011;6700;51.988;7.646;2024-03-23T11:28:29;9.47;;;2.30;;
13263;SDS011;6700;51.988;7.646;2024-03-23T11:30:56;4.70;;;2.40;;
13263;SDS011;6700;51.988;7.646;2024-03-23T11:33:22;3.37;;;2.43;;
13263;SDS011;6700;51.988;7.646;2024-03-23T11:35:48;5.80;;;1.90;;
13263;SDS011;6700;51.988;7.646;2024-03-23T11:38:16;4.13;;;1.90;;
13263;SDS011;6700;51.988;7.646;2024-03-23T11:40:48;4.47;;;1.87;;
13263;SDS011;6700;51.988;7.646;2024-03-23T11:43:18;2.33;;;1.67;;
13263;SDS011;6700;51.988;7.646;2024-03-23T11:45:45;4.90;;;1.77;;
13263;SDS011;6700;51.988;7.646;2024-03-23T11:48:12;10.20;;;2.33;;
13263;SDS011;6700;51.988;7.646;2024-03-23T11:50:39;3.37;;;1.77;;
13263;SDS011;6700;51.988;7.646;2024-03-23T11:53:07;7.47;;;2.23;;
13263;SDS011;6700;51.988;7.646;2024-03-23T11:55:49;4.57;;;2.20;;
13263;SDS011;6700;51.988;7.646;2024-03-23T11:58:16;5.40;;;2.10;;
13263;SDS011;6700;51.988;7.646;2024-03-23T12:00:49;5.63;;;2.27;;
13263;SDS011;6700;51.988;7.646;2024-03-23T12:03:16;4.23;;;2.00;;
13263;SDS011;6700;51.988;7.646;2024-03-23T12:05:47;5.83;;;2.50;;
13263;SDS011;6700;51.988;7.646;2024-03-23T12:08:17;5.10;;;2.30;;
13263;SDS011;6700;51.988;7.646;2024-03-23T12:10:44;6.00;;;2.50;;
13263;SDS011;6700;51.988;7.646;2024-03-23T12:13:11;5.40;;;2.17;;
13263;SDS011;6700;51.988;7.646;2024-03-23T12:15:37;3.03;;;1.90;;
13263;SDS011;6700;51.988;7.646;2024-03-23T12:18:07;5.43;;;2.70;;
13263;SDS011;6700;51.988;7.646;2024-03-23T12:20:33;6.27;;;2.67;;
13263;SDS011;6700;51.988;7.646;2024-03-23T12:23:06;7.57;;;3.17;;
13263;SDS011;6700;51.988;7.646;2024-03-23T12:25:34;5.87;;;2.63;;
13263;SDS011;6700;51.988;7.646;2024-03-23T12:28:00;6.43;;;2.30;;
13263;SDS011;6700;51.988;7.646;2024-03-23T12:30:26;4.60;;;1.80;;
13263;SDS011;6700;51.988;7.646;2024-03-23T12:32:52;2.10;;;1.43;;
13263;SDS011;6700;51.988;7.646;2024-03-23T12:35:19;3.63;;;1.63;;
13263;SDS011;6700;51.988;7.646;2024-03-23T12:37:45;1.43;;;1.33;;
13263;SDS011;6700;51.988;7.646;2024-03-23T12:40:11;1.90;;;1.43;;
13263;SDS011;6700;51.988;7.646;2024-03-23T12:42:37;4.13;;;1.37;;
13263;SDS011;6700;51.988;7.646;2024-03-23T12:45:04;1.50;;;1.40;;
13263;SDS011;6700;51.988;7.646;2024-03-23T12:47:31;2.87;;;1.60;;
13263;SDS011;6700;51.988;7.646;2024-03-23T12:49:57;1.47;;;1.37;;
13263;SDS011;6700;51.988;7.646;2024-03-23T12:52:23;1.87;;;1.63;;
13263;SDS011;6700;51.988;7.646;2024-03-23T12:54:54;2.63;;;1.80;;
13263;SDS011;6700;51.988;7.646;2024-03-23T12:57:21;2.43;;;1.80;;
13263;SDS011;6700;51.988;7.646;2024-03-23T12:59:48;2.87;;;2.03;;
13263;SDS011;6700;51.988;7.646;2024-03-23T13:02:22;3.97;;;2.00;;
13263;SDS011;6700;51.988;7.646;2024-03-23T13:04:49;4.47;;;1.70;;
13263;SDS011;6700;51.988;7.646;2024-03-23T13:07:16;6.27;;;2.40;;
13263;SDS011;6700;51.988;7.646;2024-03-23T13:09:43;3.00;;;2.33;;
13263;SDS011;6700;51.988;7.646;2024-03-23T13:12:09;6.83;;;2.27;;
13263;SDS011;6700;51.988;7.646;2024-03-23T13:14:37;5.03;;;2.30;;
13263;SDS011;6700;51.988;7.646;2024-03-23T13:17:04;4.03;;;2.40;;
13263;SDS011;6700;51.988;7.646;2024-03-23T13:19:30;5.23;;;2.20;;
13263;SDS011;6700;51.988;7.646;2024-03-23T13:22:00;4.20;;;2.40;;
13263;SDS011;6700;51.988;7.646;2024-03-23T13:24:27;5.53;;;2.10;;
13263;SDS011;6700;51.988;7.646;2024-03-23T13:26:54;7.40;;;2.80;;
13263;SDS011;6700;51.988;7.646;2024-03-23T13:29:20;7.50;;;2.40;;
13263;SDS011;6700;51.988;7.646;2024-03-23T13:31:47;4.43;;;2.37;;
13263;SDS011;6700;51.988;7.646;2024-03-23T13:34:14;3.37;;;2.27;;
13263;SDS011;6700;51.988;7.646;2024-03-23T13:36:44;3.60;;;2.60;;
13263;SDS011;6700;51.988;7.646;2024-03-23T13:39:11;6.80;;;2.37;;
13263;SDS011;6700;51.988;7.646;2024-03-23T13:41:40;4.87;;;2.50;;
13263;SDS011;6700;51.988;7.646;2024-03-23T13:44:07;3.57;;;1.97;;
13263;SDS011;6700;51.988;7.646;2024-03-23T13:46:33;4.13;;;1.80;;
13263;SDS011;6700;51.988;7.646;2024-03-23T13:49:00;4.77;;;2.17;;
13263;SDS011;6700;51.988;7.646;2024-03-23T13:51:26;4.50;;;2.20;;
13263;SDS011;6700;51.988;7.646;2024-03-23T13:53:53;3.87;;;1.90;;
13263;SDS011;6700;51.988;7.646;2024-03-23T13:56:20;2.63;;;1.50;;
13263;SDS011;6700;51.988;7.646;2024-03-23T13:58:46;1.70;;;1.60;;
13263;SDS011;6700;51.988;7.646;2024-03-23T14:01:13;2.17;;;1.77;;
13263;SDS011;6700;51.988;7.646;2024-03-23T14:03:40;1.83;;;1.57;;
13263;SDS011;6700;51.988;7.646;2024-03-23T14:06:06;5.17;;;1.40;;
13263;SDS011;6700;51.988;7.646;2024-03-23T14:08:33;2.90;;;1.60;;
13263;SDS011;6700;51.988;7.646;2024-03-23T14:11:01;5.37;;;1.80;;
13263;SDS011;6700;51.988;7.646;2024-03-23T14:13:28;3.47;;;2.67;;
13263;SDS011;6700;51.988;7.646;2024-03-23T14:15:54;3.57;;;2.07;;
13263;SDS011;6700;51.988;7.646;2024-03-23T14:18:21;5.20;;;1.93;;
13263;SDS011;6700;51.988;7.646;2024-03-23T14:20:48;3.20;;;1.83;;
13263;SDS011;6700;51.988;7.646;2024-03-23T14:23:15;2.90;;;1.87;;
13263;SDS011;6700;51.988;7.646;2024-03-23T14:25:41;2.60;;;1.80;;
13263;SDS011;6700;51.988;7.646;2024-03-23T14:28:07;4.70;;;1.83;;
13263;SDS011;6700;51.988;7.646;2024-03-23T14:30:40;2.87;;;1.90;;
13263;SDS011;6700;51.988;7.646;2024-03-23T14:33:06;3.50;;;2.07;;
13263;SDS011;6700;51.988;7.646;2024-03-23T14:35:32;4.77;;;2.00;;
13263;SDS011;6700;51.988;7.646;2024-03-23T14:37:59;4.33;;;2.30;;
13263;SDS011;6700;51.988;7.646;2024-03-23T14:40:25;4.93;;;1.90;;
13263;SDS011;6700;51.988;7.646;2024-03-23T14:42:54;5.00;;;1.87;;
13263;SDS011;6700;51.988;7.646;2024-03-23T14:45:21;4.17;;;2.00;;
13263;SDS011;6700;51.988;7.646;2024-03-23T14:47:49;3.07;;;1.60;;
13263;SDS011;6700;51.988;7.646;2024-03-23T14:50:15;3.63;;;2.03;;
13263;SDS011;6700;51.988;7.646;2024-03-23T14:52:43;4.17;;;2.13;;
13263;SDS011;6700;51.988;7.646;2024-03-23T14:55:11;4.47;;;1.97;;
13263;SDS011;6700;51.988;7.646;2024-03-23T14:57:37;3.43;;;1.93;;
13263;SDS011;6700;51.988;7.646;2024-03-23T15:00:07;5.03;;;1.80;;
13263;SDS011;6700;51.988;7.646;2024-03-23T15:02:36;2.47;;;1.73;;
13263;SDS011;6700;51.988;7.646;2024-03-23T15:05:02;5.43;;;1.83;;
13263;SDS011;6700;51.988;7.646;2024-03-23T15:07:30;4.17;;;1.60;;
13263;SDS011;6700;51.988;7.646;2024-03-23T15:09:56;2.43;;;1.50;;
13263;SDS011;6700;51.988;7.646;2024-03-23T15:12:22;4.07;;;1.77;;
13263;SDS011;6700;51.988;7.646;2024-03-23T15:14:48;5.33;;;1.77;;
13263;SDS011;6700;51.988;7.646;2024-03-23T15:17:15;5.60;;;1.80;;
13263;SDS011;6700;51.988;7.646;2024-03-23T15:19:41;5.93;;;1.80;;
13263;SDS011;6700;51.988;7.646;2024-03-23T15:22:08;3.90;;;1.70;;
13263;SDS011;6700;51.988;7.646;2024-03-23T15:24:35;5.87;;;1.97;;
13263;SDS011;6700;51.988;7.646;2024-03-23T15:27:02;4.70;;;2.10;;
13263;SDS011;6700;51.988;7.646;2024-03-23T15:29:28;4.23;;;1.70;;
13263;SDS011;6700;51.988;7.646;2024-03-23T15:31:54;1.97;;;1.70;;
13263;SDS011;6700;51.988;7.646;2024-03-23T15:34:21;4.43;;;1.50;;
13263;SDS011;6700;51.988;7.646;2024-03-23T15:36:48;4.27;;;1.50;;
13263;SDS011;6700;51.988;7.646;2024-03-23T15:39:18;3.37;;;1.70;;
13263;SDS011;6700;51.988;7.646;2024-03-23T15:41:47;6.03;;;1.67;;
13263;SDS011;6700;51.988;7.646;2024-03-23T15:44:14;3.57;;;2.03;;
13263;SDS011;6700;51.988;7.646;2024-03-23T15:46:40;4.20;;;2.40;;
13263;SDS011;6700;51.988;7.646;2024-03-23T15:49:07;6.47;;;2.07;;
13263;SDS011;6700;51.988;7.646;2024-03-23T15:51:33;3.83;;;2.20;;